createdAt,value
2023-03-28T00:00:51.030Z,81.11
2023-03-28T00:03:22.811Z,81.94
2023-03-28T00:06:16.763Z,81.08
2023-03-28T00:08:46.021Z,80.13
2023-03-28T00:11:19.668Z,80.78
2023-03-28T00:13:58.280Z,79.71
2023-03-28T00:16:32.626Z,79.43
2023-03-28T00:19:05.896Z,79.84
2023-03-28T00:21:41.550Z,80.06
2023-03-28T00:24:14.010Z,80.42
2023-03-28T00:26:42.790Z,80.18
2023-03-28T00:29:12.261Z,80.41
2023-03-28T00:31:39.868Z,80.47
2023-03-28T00:34:07.220Z,79.42
2023-03-28T00:36:34.769Z,79.50
2023-03-28T00:39:07.036Z,80.07
2023-03-28T00:41:39.988Z,80.27
2023-03-28T00:44:38.023Z,80.85
2023-03-28T00:47:06.496Z,81.06
2023-03-28T00:49:33.987Z,80.21
2023-03-28T00:52:04.382Z,80.73
2023-03-28T00:54:39.709Z,81.26
2023-03-28T00:57:08.377Z,80.51
2023-03-28T00:59:37.430Z,81.03
2023-03-28T01:02:06.448Z,80.68
2023-03-28T01:04:46.436Z,81.81
2023-03-28T01:07:16.467Z,80.88
2023-03-28T01:09:43.649Z,80.31
2023-03-28T01:12:11.764Z,79.87
2023-03-28T01:14:40.146Z,80.03
2023-03-28T01:17:08.925Z,80.87
2023-03-28T01:19:42.697Z,80.01
2023-03-28T01:22:13.922Z,79.90
2023-03-28T01:25:18.665Z,79.90
2023-03-28T01:28:05.776Z,78.73
2023-03-28T01:31:19.176Z,78.97
2023-03-28T01:34:30.464Z,78.88
2023-03-28T01:37:00.518Z,78.92
2023-03-28T01:39:43.205Z,78.69
2023-03-28T01:42:34.543Z,78.86
2023-03-28T01:45:09.479Z,78.93
2023-03-28T01:47:41.287Z,78.55
2023-03-28T01:50:21.517Z,77.64
2023-03-28T01:53:14.233Z,78.15
2023-03-28T01:55:48.777Z,78.20
2023-03-28T01:58:37.724Z,79.15
2023-03-28T02:01:23.095Z,78.56
2023-03-28T02:04:01.748Z,78.38
2023-03-28T02:06:38.852Z,78.41
2023-03-28T02:09:13.480Z,78.68
2023-03-28T02:12:33.687Z,78.87
2023-03-28T02:15:15.912Z,79.22
2023-03-28T02:18:12.362Z,78.91
2023-03-28T02:21:09.543Z,79.54
2023-03-28T02:23:52.467Z,79.19
2023-03-28T02:26:33.601Z,79.38
2023-03-28T02:29:30.757Z,79.28
2023-03-28T02:32:27.120Z,79.50
2023-03-28T02:34:55.516Z,79.41
2023-03-28T02:38:03.147Z,78.74
2023-03-28T02:40:39.608Z,79.86
2023-03-28T02:43:15.866Z,79.83
2023-03-28T02:46:05.430Z,79.70
2023-03-28T02:48:35.318Z,78.99
2023-03-28T02:51:23.757Z,79.32
2023-03-28T02:53:50.813Z,79.10
2023-03-28T02:56:20.253Z,78.54
2023-03-28T02:59:31.616Z,78.48
2023-03-28T03:01:59.433Z,79.03
2023-03-28T03:04:26.572Z,78.57
2023-03-28T03:06:53.679Z,79.15
2023-03-28T03:09:20.918Z,78.31
2023-03-28T03:11:48.010Z,78.11
2023-03-28T03:14:14.951Z,77.42
2023-03-28T03:16:43.461Z,77.36
2023-03-28T03:19:11.565Z,76.92
2023-03-28T03:21:38.542Z,77.16
2023-03-28T03:24:05.876Z,76.98
2023-03-28T03:26:32.995Z,76.19
2023-03-28T03:29:04.526Z,76.71
2023-03-28T03:31:32.921Z,76.17
2023-03-28T03:34:19.025Z,75.97
2023-03-28T03:36:55.332Z,74.92
2023-03-28T03:39:23.428Z,74.91
2023-03-28T03:41:50.474Z,74.96
2023-03-28T03:44:17.521Z,74.76
2023-03-28T03:46:44.703Z,74.41
2023-03-28T03:49:13.221Z,74.12
2023-03-28T03:51:41.308Z,74.30
2023-03-28T03:54:13.397Z,74.39
2023-03-28T03:56:43.108Z,73.75
2023-03-28T03:59:11.690Z,73.27
2023-03-28T04:01:41.633Z,73.25
2023-03-28T04:04:28.311Z,73.14
2023-03-28T04:07:27.387Z,73.89
2023-03-28T04:09:57.062Z,73.04
2023-03-28T04:12:26.889Z,73.45
2023-03-28T04:14:55.845Z,73.61
2023-03-28T04:17:35.433Z,73.28
2023-03-28T04:20:13.846Z,73.93
2023-03-28T04:23:01.008Z,74.26
2023-03-28T04:25:29.958Z,74.18
2023-03-28T04:28:03.961Z,74.49
2023-03-28T04:30:36.400Z,74.33
2023-03-28T04:33:25.340Z,73.97
2023-03-28T04:36:00.281Z,74.19
2023-03-28T04:38:36.313Z,74.18
2023-03-28T04:41:41.682Z,74.53
2023-03-28T04:44:26.047Z,74.10
2023-03-28T04:47:01.792Z,72.10
2023-03-28T04:49:28.980Z,72.06
2023-03-28T04:51:56.254Z,72.11
2023-03-28T04:54:23.223Z,70.06
2023-03-28T04:57:06.003Z,68.85
2023-03-28T04:59:43.152Z,69.77
2023-03-28T05:02:15.739Z,68.65
2023-03-28T05:04:45.683Z,69.51
2023-03-28T05:07:15.610Z,69.09
2023-03-28T05:09:42.818Z,68.97
2023-03-28T05:12:09.617Z,68.77
2023-03-28T05:14:54.158Z,68.97
2023-03-28T05:17:21.300Z,69.62
2023-03-28T05:19:48.128Z,69.07
2023-03-28T05:22:18.504Z,68.87
2023-03-28T05:24:45.577Z,69.75
2023-03-28T05:27:20.716Z,69.79
2023-03-28T05:29:48.327Z,69.33
2023-03-28T05:32:17.239Z,69.23
2023-03-28T05:34:45.909Z,68.50
2023-03-28T05:37:13.380Z,68.60
2023-03-28T05:39:59.791Z,68.76
2023-03-28T05:42:31.366Z,68.95
2023-03-28T05:44:58.700Z,69.20
2023-03-28T05:47:54.585Z,68.71
2023-03-28T05:50:24.220Z,67.84
2023-03-28T05:52:56.227Z,68.82
2023-03-28T05:55:26.505Z,67.48
2023-03-28T05:57:53.916Z,68.73
2023-03-28T06:00:24.507Z,68.06
2023-03-28T06:02:52.844Z,67.88
2023-03-28T06:05:29.405Z,67.39
2023-03-28T06:07:56.940Z,67.15
2023-03-28T06:10:25.966Z,67.04
2023-03-28T06:13:11.872Z,66.02
2023-03-28T06:15:38.901Z,66.18
2023-03-28T06:18:09.110Z,65.52
2023-03-28T06:20:43.525Z,65.85
2023-03-28T06:23:11.179Z,66.34
2023-03-28T06:25:38.163Z,66.92
2023-03-28T06:28:05.513Z,66.59
2023-03-28T06:30:37.994Z,65.74
2023-03-28T06:33:08.273Z,66.16
2023-03-28T06:35:36.113Z,63.47
2023-03-28T06:38:03.597Z,62.55
2023-03-28T06:40:31.085Z,62.74
2023-03-28T06:42:59.982Z,62.74
2023-03-28T06:45:41.047Z,63.24
2023-03-28T06:48:12.532Z,62.67
2023-03-28T06:50:59.122Z,63.42
2023-03-28T06:53:28.136Z,62.45
2023-03-28T06:55:55.809Z,63.06
2023-03-28T06:58:23.752Z,63.64
2023-03-28T07:00:59.552Z,63.58
2023-03-28T07:03:37.944Z,64.06
2023-03-28T07:06:08.073Z,63.84
2023-03-28T07:08:36.006Z,65.04
2023-03-28T07:11:03.702Z,64.98
2023-03-28T07:13:31.957Z,63.88
2023-03-28T07:16:15.577Z,62.39
2023-03-28T07:18:44.078Z,62.30
2023-03-28T07:21:21.319Z,61.36
2023-03-28T07:23:48.375Z,60.71
2023-03-28T07:26:19.594Z,60.62
2023-03-28T07:28:47.147Z,60.07
2023-03-28T07:31:14.166Z,61.01
2023-03-28T07:33:41.376Z,60.21
2023-03-28T07:36:15.754Z,59.90
2023-03-28T07:38:49.035Z,59.23
2023-03-28T07:41:18.935Z,59.84
2023-03-28T07:43:45.930Z,59.53
2023-03-28T07:46:15.134Z,59.58
2023-03-28T07:48:42.529Z,59.65
2023-03-28T07:51:11.314Z,59.80
2023-03-28T07:53:39.122Z,59.94
2023-03-28T07:56:12.190Z,60.00
2023-03-28T07:59:14.021Z,60.21
2023-03-28T08:01:45.752Z,60.28
2023-03-28T08:04:14.012Z,60.39
2023-03-28T08:07:02.300Z,60.30
2023-03-28T08:09:29.352Z,60.32
2023-03-28T08:12:09.407Z,59.93
2023-03-28T08:14:36.320Z,58.76
2023-03-28T08:17:03.939Z,58.15
2023-03-28T08:19:31.465Z,58.76
2023-03-28T08:22:11.678Z,59.70
2023-03-28T08:24:47.032Z,60.44
2023-03-28T08:27:19.265Z,60.22
2023-03-28T08:29:49.875Z,58.24
2023-03-28T08:32:16.876Z,58.89
2023-03-28T08:34:44.207Z,59.20
2023-03-28T08:37:15.327Z,58.76
2023-03-28T08:39:45.780Z,58.25
2023-03-28T08:42:38.313Z,56.45
2023-03-28T08:45:26.949Z,56.73
2023-03-28T08:48:19.443Z,56.37
2023-03-28T08:50:53.533Z,56.11
2023-03-28T08:53:26.899Z,56.59
2023-03-28T08:55:56.460Z,56.54
2023-03-28T08:58:27.234Z,55.22
2023-03-28T09:00:54.434Z,55.31
2023-03-28T09:03:24.224Z,55.61
2023-03-28T09:06:37.043Z,55.65
2023-03-28T09:09:50.021Z,56.48
2023-03-28T09:12:50.968Z,55.75
2023-03-28T09:15:27.855Z,55.57
2023-03-28T09:18:04.205Z,56.41
2023-03-28T09:20:50.343Z,56.29
2023-03-28T09:23:47.706Z,57.31
2023-03-28T09:26:27.969Z,58.59
2023-03-28T09:29:10.301Z,59.03
2023-03-28T09:31:48.054Z,59.58
2023-03-28T09:34:23.102Z,57.85
2023-03-28T09:36:56.430Z,58.41
2023-03-28T09:39:34.965Z,58.53
2023-03-28T09:42:13.970Z,57.82
2023-03-28T09:45:23.989Z,58.83
2023-03-28T09:48:00.742Z,59.23
2023-03-28T09:50:34.607Z,58.76
2023-03-28T09:53:02.992Z,58.39
2023-03-28T09:55:31.185Z,57.41
2023-03-28T09:58:12.327Z,57.27
2023-03-28T10:01:23.375Z,58.15
2023-03-28T10:04:28.270Z,57.50
2023-03-28T10:07:42.877Z,55.52
2023-03-28T10:10:21.783Z,55.42
2023-03-28T10:12:58.907Z,54.35
2023-03-28T10:15:35.208Z,53.55
2023-03-28T10:18:34.651Z,52.34
2023-03-28T10:21:37.193Z,51.81
2023-03-28T10:24:20.261Z,51.93
2023-03-28T10:26:57.126Z,52.08
2023-03-28T10:29:27.079Z,52.33
2023-03-28T10:31:55.086Z,52.68
2023-03-28T10:35:17.708Z,52.52
2023-03-28T10:37:55.104Z,53.41
2023-03-28T10:40:33.184Z,53.49
2023-03-28T10:43:03.048Z,53.71
2023-03-28T10:45:51.139Z,54.10
2023-03-28T10:48:36.555Z,54.27
2023-03-28T10:51:17.490Z,52.92
2023-03-28T10:53:52.218Z,54.62
2023-03-28T10:56:38.600Z,54.24
2023-03-28T10:59:10.933Z,54.20
2023-03-28T11:01:44.562Z,55.06
2023-03-28T11:04:19.406Z,54.36
2023-03-28T11:06:54.949Z,55.38
2023-03-28T11:09:42.546Z,53.96
2023-03-28T11:12:59.083Z,54.31
2023-03-28T11:15:32.714Z,54.78
2023-03-28T11:18:28.056Z,53.93
2023-03-28T11:21:35.537Z,54.11
2023-03-28T11:24:17.605Z,52.12
2023-03-28T11:27:16.100Z,51.32
2023-03-28T11:29:53.855Z,51.98
2023-03-28T11:32:31.000Z,51.77
2023-03-28T11:35:14.080Z,52.21
2023-03-28T11:37:59.437Z,50.66
2023-03-28T11:40:44.956Z,49.99
2023-03-28T11:43:19.956Z,48.91
2023-03-28T11:45:53.182Z,49.33
2023-03-28T11:48:39.206Z,49.52
2023-03-28T11:51:34.028Z,49.37
2023-03-28T11:54:10.723Z,49.24
2023-03-28T11:56:52.200Z,50.14
2023-03-28T11:59:57.895Z,48.24
2023-03-28T12:02:30.382Z,50.14
2023-03-28T12:05:05.497Z,48.68
2023-03-28T12:07:38.116Z,48.25
2023-03-28T12:10:28.474Z,49.08
2023-03-28T12:13:04.861Z,47.83
2023-03-28T12:15:50.183Z,48.62
2023-03-28T12:19:01.583Z,48.78
2023-03-28T12:21:57.520Z,47.30
2023-03-28T12:24:53.127Z,47.54
2023-03-28T12:27:51.072Z,47.25
2023-03-28T12:30:35.809Z,47.15
2023-03-28T12:33:32.426Z,47.17
2023-03-28T12:37:04.125Z,47.57
2023-03-28T12:39:55.783Z,48.35
2023-03-28T12:42:29.268Z,47.97
2023-03-28T12:45:01.844Z,47.75
2023-03-28T12:47:38.662Z,47.04
2023-03-28T12:50:31.052Z,47.98
2023-03-28T12:52:59.489Z,47.16
2023-03-28T12:55:48.459Z,46.73
2023-03-28T12:58:22.961Z,44.96
2023-03-28T13:01:18.176Z,45.76
2023-03-28T13:04:29.467Z,45.42
2023-03-28T13:07:47.980Z,44.21
2023-03-28T13:10:27.116Z,44.54
2023-03-28T13:13:19.639Z,44.80
2023-03-28T13:16:05.795Z,44.89
2023-03-28T13:18:34.666Z,45.26
2023-03-28T13:21:05.102Z,44.55
2023-03-28T13:23:44.967Z,44.10
2023-03-28T13:26:12.601Z,44.78
2023-03-28T13:28:51.674Z,43.37
2023-03-28T13:31:20.547Z,41.76
2023-03-28T13:33:52.926Z,41.16
2023-03-28T13:36:23.455Z,41.73
2023-03-28T13:39:20.469Z,40.55
2023-03-28T13:41:47.606Z,40.91
2023-03-28T13:44:20.265Z,40.95
2023-03-28T13:46:52.936Z,41.25
2023-03-28T13:49:31.713Z,41.96
2023-03-28T13:52:14.896Z,42.44
2023-03-28T13:54:42.291Z,41.82
2023-03-28T13:57:20.801Z,41.44
2023-03-28T14:00:05.143Z,41.32
2023-03-28T14:02:47.013Z,40.65
2023-03-28T14:05:32.171Z,40.74
2023-03-28T14:08:20.844Z,40.62
2023-03-28T14:10:51.094Z,40.79
2023-03-28T14:13:31.024Z,40.88
2023-03-28T14:15:58.448Z,40.14
2023-03-28T14:19:02.850Z,41.10
2023-03-28T14:21:31.943Z,41.13
2023-03-28T14:24:01.374Z,40.67
2023-03-28T14:26:32.182Z,40.64
2023-03-28T14:29:06.109Z,41.85
2023-03-28T14:31:37.382Z,41.74
2023-03-28T14:34:26.572Z,41.82
2023-03-28T14:36:59.197Z,41.54
2023-03-28T14:39:34.987Z,41.57
2023-03-28T14:42:05.598Z,42.39
2023-03-28T14:44:37.466Z,42.20
2023-03-28T14:47:04.898Z,41.93
2023-03-28T14:49:32.799Z,41.72
2023-03-28T14:52:04.515Z,41.94
2023-03-28T14:54:34.906Z,42.06
2023-03-28T14:57:04.497Z,43.30
2023-03-28T14:59:33.878Z,43.78
2023-03-28T15:02:04.380Z,43.99
2023-03-28T15:04:32.164Z,43.53
2023-03-28T15:06:59.137Z,44.24
2023-03-28T15:09:33.037Z,42.88
2023-03-28T15:12:09.171Z,42.50
2023-03-28T15:14:42.686Z,41.25
2023-03-28T15:17:18.028Z,41.98
2023-03-28T15:19:48.222Z,42.07
2023-03-28T15:22:22.178Z,42.16
2023-03-28T15:24:52.890Z,41.73
2023-03-28T15:27:40.438Z,42.20
2023-03-28T15:30:15.640Z,42.76
2023-03-28T15:32:43.160Z,44.13
2023-03-28T15:35:40.885Z,43.83
2023-03-28T15:38:25.414Z,43.01
2023-03-28T15:41:09.335Z,41.51
2023-03-28T15:43:52.665Z,41.38
2023-03-28T15:46:22.181Z,42.12
2023-03-28T15:48:51.125Z,42.57
2023-03-28T15:51:19.245Z,40.22
2023-03-28T15:53:49.083Z,40.35
2023-03-28T15:56:26.847Z,40.37
2023-03-28T15:59:00.837Z,40.07
2023-03-28T16:01:30.671Z,40.52
2023-03-28T16:04:27.862Z,42.79
2023-03-28T16:07:04.545Z,42.58
2023-03-28T16:09:32.289Z,42.34
2023-03-28T16:12:00.800Z,43.42
2023-03-28T16:14:49.440Z,46.04
2023-03-28T16:17:42.150Z,48.46
2023-03-28T16:20:26.126Z,48.20
2023-03-28T16:22:56.288Z,47.54
2023-03-28T16:25:23.213Z,49.22
2023-03-28T16:27:50.502Z,50.70
2023-03-28T16:30:29.457Z,51.20
2023-03-28T16:32:56.884Z,51.82
2023-03-28T16:35:27.061Z,52.45
2023-03-28T16:37:54.874Z,52.30
2023-03-28T16:40:22.738Z,53.35
2023-03-28T16:42:51.048Z,52.46
2023-03-28T16:45:20.368Z,52.54
2023-03-28T16:47:48.328Z,52.62
2023-03-28T16:50:16.488Z,52.42
2023-03-28T16:52:43.610Z,52.32
2023-03-28T16:55:16.223Z,53.32
2023-03-28T16:57:45.169Z,54.73
2023-03-28T17:00:18.043Z,56.35
2023-03-28T17:02:47.746Z,57.54
2023-03-28T17:05:16.796Z,58.65
2023-03-28T17:07:43.768Z,59.90
2023-03-28T17:10:11.627Z,61.67
2023-03-28T17:12:40.015Z,64.64
2023-03-28T17:15:09.018Z,64.64
2023-03-28T17:17:36.392Z,64.33
2023-03-28T17:20:04.940Z,64.74
2023-03-28T17:22:31.993Z,64.74
2023-03-28T17:25:00.577Z,65.45
2023-03-28T17:27:28.269Z,65.76
2023-03-28T17:29:55.452Z,66.25
2023-03-28T17:32:26.470Z,66.49
2023-03-28T17:34:53.962Z,65.86
2023-03-28T17:37:22.470Z,65.88
2023-03-28T17:39:49.530Z,65.50
2023-03-28T17:42:16.962Z,65.43
2023-03-28T17:44:44.272Z,64.75
2023-03-28T17:47:15.493Z,64.27
2023-03-28T17:49:43.244Z,63.98
2023-03-28T17:52:10.749Z,63.99
2023-03-28T17:54:38.187Z,64.32
2023-03-28T17:57:06.870Z,64.46
2023-03-28T17:59:34.080Z,64.41
2023-03-28T18:02:02.312Z,64.96
2023-03-28T18:04:30.305Z,65.01
2023-03-28T18:07:17.396Z,64.79
2023-03-28T18:09:46.073Z,64.88
2023-03-28T18:12:13.635Z,64.85
2023-03-28T18:14:40.815Z,65.17
2023-03-28T18:17:08.463Z,65.27
2023-03-28T18:19:35.990Z,65.60
2023-03-28T18:22:03.663Z,66.23
2023-03-28T18:24:30.756Z,66.31
2023-03-28T18:26:59.198Z,66.34
2023-03-28T18:29:26.166Z,66.30
2023-03-28T18:31:53.296Z,66.53
2023-03-28T18:34:20.611Z,66.89
2023-03-28T18:36:48.381Z,66.77
2023-03-28T18:39:16.176Z,66.59
2023-03-28T18:41:43.292Z,67.18
2023-03-28T18:44:10.753Z,66.92
2023-03-28T18:46:37.930Z,67.28
2023-03-28T18:49:04.874Z,67.18
2023-03-28T18:51:32.171Z,67.26
2023-03-28T18:54:03.878Z,66.93
2023-03-28T18:56:32.182Z,66.91
2023-03-28T18:58:59.410Z,67.18
2023-03-28T19:01:30.140Z,66.56
2023-03-28T19:03:57.863Z,66.64
2023-03-28T19:06:25.184Z,66.66
2023-03-28T19:08:52.458Z,67.11
2023-03-28T19:11:19.834Z,67.33
2023-03-28T19:13:47.119Z,67.35
2023-03-28T19:16:16.587Z,67.27
2023-03-28T19:18:45.405Z,67.50
2023-03-28T19:21:12.982Z,67.58
2023-03-28T19:23:40.514Z,67.87
2023-03-28T19:26:09.634Z,68.15
2023-03-28T19:28:36.759Z,68.55
2023-03-28T19:31:07.029Z,68.71
2023-03-28T19:33:35.919Z,68.63
2023-03-28T19:36:03.680Z,68.85
2023-03-28T19:38:33.578Z,69.00
2023-03-28T19:41:03.894Z,68.96
2023-03-28T19:43:31.411Z,69.14
2023-03-28T19:46:04.396Z,69.18
2023-03-28T19:48:32.695Z,68.89
2023-03-28T19:50:59.680Z,68.56
2023-03-28T19:53:26.861Z,68.89
2023-03-28T19:55:56.764Z,68.59
2023-03-28T19:58:24.452Z,68.75
2023-03-28T20:00:52.163Z,69.20
2023-03-28T20:03:19.426Z,69.00
2023-03-28T20:05:47.926Z,68.98
2023-03-28T20:08:16.195Z,68.85
2023-03-28T20:10:45.065Z,68.68
2023-03-28T20:13:12.453Z,68.98
2023-03-28T20:15:41.599Z,69.56
2023-03-28T20:18:20.426Z,69.70
2023-03-28T20:20:53.061Z,69.82
2023-03-28T20:23:23.626Z,69.90
2023-03-28T20:25:52.332Z,69.52
2023-03-28T20:28:21.111Z,69.61
2023-03-28T20:30:48.388Z,69.28
2023-03-28T20:33:15.650Z,68.96
2023-03-28T20:35:42.955Z,68.65
2023-03-28T20:38:09.986Z,68.39
2023-03-28T20:40:40.828Z,68.51
2023-03-28T20:43:10.173Z,68.97
2023-03-28T20:45:38.648Z,68.98
2023-03-28T20:48:10.537Z,69.02
2023-03-28T20:50:41.439Z,68.79
2023-03-28T20:53:09.239Z,68.46
2023-03-28T20:55:36.216Z,68.01
2023-03-28T20:58:03.425Z,67.75
2023-03-28T21:00:32.154Z,67.54
2023-03-28T21:02:59.850Z,67.04
2023-03-28T21:05:27.547Z,67.24
2023-03-28T21:07:55.580Z,67.50
2023-03-28T21:10:23.408Z,67.18
2023-03-28T21:12:51.050Z,67.08
2023-03-28T21:15:18.219Z,66.78
2023-03-28T21:17:49.474Z,66.94
2023-03-28T21:20:35.358Z,67.04
2023-03-28T21:23:02.300Z,66.80
2023-03-28T21:25:29.275Z,66.43
2023-03-28T21:27:57.056Z,65.71
2023-03-28T21:30:24.298Z,65.29
2023-03-28T21:32:51.197Z,65.29
2023-03-28T21:35:19.152Z,65.33
2023-03-28T21:37:47.254Z,65.38
2023-03-28T21:40:14.467Z,65.43
2023-03-28T21:42:44.511Z,65.15
2023-03-28T21:45:21.174Z,65.57
2023-03-28T21:47:51.913Z,64.89
2023-03-28T21:50:24.375Z,65.09
2023-03-28T21:52:53.495Z,65.24
2023-03-28T21:55:28.837Z,65.46
2023-03-28T21:57:57.994Z,65.85
2023-03-28T22:00:29.451Z,66.24
2023-03-28T22:02:57.058Z,66.48
2023-03-28T22:05:30.129Z,66.76
2023-03-28T22:08:06.387Z,66.38
2023-03-28T22:11:00.465Z,66.68
2023-03-28T22:13:30.082Z,66.48
2023-03-28T22:16:01.729Z,66.58
2023-03-28T22:18:34.193Z,66.68
2023-03-28T22:21:06.690Z,66.44
2023-03-28T22:23:33.777Z,66.40
2023-03-28T22:26:02.052Z,66.55
2023-03-28T22:28:31.591Z,66.53
2023-03-28T22:31:00.293Z,66.96
2023-03-28T22:33:32.123Z,66.99
2023-03-28T22:36:05.175Z,66.91
2023-03-28T22:38:40.484Z,67.10
2023-03-28T22:41:08.964Z,66.75
2023-03-28T22:43:37.526Z,66.84
2023-03-28T22:46:06.400Z,66.99
2023-03-28T22:48:33.344Z,66.58
2023-03-28T22:51:01.652Z,66.76
2023-03-28T22:53:29.014Z,67.11
2023-03-28T22:55:57.760Z,67.33
2023-03-28T22:58:32.765Z,67.29
2023-03-28T23:01:00.945Z,67.41
2023-03-28T23:03:30.133Z,67.67
2023-03-28T23:06:08.092Z,68.33
2023-03-28T23:08:36.768Z,68.44
2023-03-28T23:11:05.204Z,68.47
2023-03-28T23:13:36.943Z,68.74
2023-03-28T23:16:04.457Z,68.97
2023-03-28T23:18:36.408Z,68.84
2023-03-28T23:21:04.418Z,68.89
2023-03-28T23:23:33.424Z,69.18
2023-03-28T23:26:04.989Z,69.21
2023-03-28T23:28:36.459Z,69.84
2023-03-28T23:31:08.933Z,69.70
2023-03-28T23:33:38.957Z,69.92
2023-03-28T23:36:15.366Z,70.16
2023-03-28T23:38:43.222Z,70.03
2023-03-28T23:41:10.573Z,70.65
2023-03-28T23:43:37.968Z,70.86
2023-03-28T23:46:05.595Z,71.27
2023-03-28T23:48:32.804Z,71.63
2023-03-28T23:51:02.059Z,71.68
2023-03-28T23:53:29.975Z,71.88
2023-03-28T23:55:57.026Z,71.36
2023-03-28T23:58:24.090Z,71.89
